createdAt,value
2022-10-23T00:04:46.479Z,81.55
2022-10-23T00:09:49.428Z,81.50
2022-10-23T00:14:52.382Z,81.44
2022-10-23T00:19:55.334Z,81.60
2022-10-23T00:24:58.284Z,81.73
2022-10-23T00:30:03.046Z,81.94
2022-10-23T00:35:06.660Z,81.83
2022-10-23T00:40:10.306Z,81.81
2022-10-23T00:45:31.238Z,81.90
2022-10-23T00:50:34.240Z,81.73
2022-10-23T00:55:38.962Z,81.62
2022-10-23T01:00:46.011Z,81.70
2022-10-23T01:06:03.249Z,81.72
2022-10-23T01:11:38.242Z,81.52
2022-10-23T01:17:15.899Z,81.59
2022-10-23T01:22:33.254Z,81.55
2022-10-23T01:27:48.490Z,81.38
2022-10-23T01:33:02.450Z,81.42
2022-10-23T01:38:21.008Z,81.29
2022-10-23T01:43:34.504Z,81.22
2022-10-23T01:48:37.992Z,81.07
2022-10-23T01:53:43.479Z,81.36
2022-10-23T01:58:49.524Z,81.60
2022-10-23T02:03:53.841Z,81.24
2022-10-23T02:08:57.094Z,81.20
2022-10-23T02:14:42.098Z,80.89
2022-10-23T02:20:03.019Z,81.23
2022-10-23T02:25:11.558Z,81.45
2022-10-23T02:30:18.352Z,81.67
2022-10-23T02:35:24.275Z,81.57
2022-10-23T02:40:44.424Z,81.87
2022-10-23T02:45:59.999Z,81.74
2022-10-23T02:51:56.072Z,81.46
2022-10-23T02:57:31.157Z,81.60
2022-10-23T03:02:44.285Z,81.61
2022-10-23T03:07:47.708Z,81.38
2022-10-23T03:12:50.982Z,81.34
2022-10-23T03:17:53.880Z,81.44
2022-10-23T03:22:56.785Z,81.16
2022-10-23T03:28:00.360Z,81.01
2022-10-23T03:33:03.243Z,80.73
2022-10-23T03:38:06.260Z,80.55
2022-10-23T03:43:09.323Z,80.41
2022-10-23T03:48:12.276Z,80.55
2022-10-23T03:53:15.175Z,80.66
2022-10-23T03:58:18.101Z,80.44
2022-10-23T04:03:21.014Z,80.36
2022-10-23T04:08:23.909Z,80.10
2022-10-23T04:13:27.099Z,79.93
2022-10-23T04:18:30.155Z,79.69
2022-10-23T04:23:33.313Z,79.69
2022-10-23T04:28:36.257Z,79.34
2022-10-23T04:33:39.166Z,79.25
2022-10-23T04:38:42.118Z,79.41
2022-10-23T04:43:45.045Z,79.70
2022-10-23T04:48:47.981Z,79.95
2022-10-23T04:53:50.871Z,79.98
2022-10-23T04:58:54.929Z,79.65
2022-10-23T05:03:57.886Z,79.13
2022-10-23T05:09:00.803Z,79.43
2022-10-23T05:14:03.718Z,79.45
2022-10-23T05:19:10.187Z,79.64
2022-10-23T05:24:13.102Z,79.32
2022-10-23T05:29:15.984Z,79.33
2022-10-23T05:34:23.118Z,79.25
2022-10-23T05:39:26.589Z,79.03
2022-10-23T05:44:29.331Z,79.00
2022-10-23T05:49:32.284Z,78.85
2022-10-23T05:54:35.266Z,78.98
2022-10-23T05:59:38.310Z,78.90
2022-10-23T06:04:41.270Z,78.95
2022-10-23T06:09:44.174Z,79.05
2022-10-23T06:14:47.466Z,78.92
2022-10-23T06:19:50.868Z,78.74
2022-10-23T06:24:54.128Z,78.79
2022-10-23T06:29:57.053Z,79.06
2022-10-23T06:34:59.955Z,79.01
2022-10-23T06:40:02.898Z,79.02
2022-10-23T06:45:07.337Z,79.11
2022-10-23T06:50:13.092Z,78.98
2022-10-23T06:55:19.294Z,79.12
2022-10-23T07:00:22.246Z,79.14
2022-10-23T07:05:25.146Z,78.99
2022-10-23T07:10:28.076Z,79.05
2022-10-23T07:15:31.303Z,79.21
2022-10-23T07:20:34.607Z,79.20
2022-10-23T07:25:38.063Z,79.03
2022-10-23T07:30:41.500Z,79.01
2022-10-23T07:35:46.260Z,78.73
2022-10-23T07:40:49.232Z,78.61
2022-10-23T07:45:53.222Z,78.64
2022-10-23T07:51:01.954Z,78.79
2022-10-23T07:56:16.732Z,78.68
2022-10-23T08:01:27.906Z,78.45
2022-10-23T08:06:31.058Z,78.30
2022-10-23T08:11:35.830Z,78.33
2022-10-23T08:16:39.510Z,78.23
2022-10-23T08:21:42.445Z,78.30
2022-10-23T08:26:45.355Z,78.35
2022-10-23T08:31:48.252Z,78.46
2022-10-23T08:36:51.452Z,78.51
2022-10-23T08:41:54.674Z,78.40
2022-10-23T08:47:18.610Z,78.24
2022-10-23T08:52:46.076Z,78.14
2022-10-23T08:58:33.001Z,77.92
2022-10-23T09:03:35.969Z,77.89
2022-10-23T09:08:52.237Z,77.73
2022-10-23T09:14:35.768Z,77.48
2022-10-23T09:19:38.953Z,77.47
2022-10-23T09:24:44.728Z,77.23
2022-10-23T09:29:55.185Z,77.29
2022-10-23T09:34:58.144Z,77.17
2022-10-23T09:40:25.367Z,76.72
2022-10-23T09:45:34.843Z,76.50
2022-10-23T09:50:38.004Z,76.31
2022-10-23T09:55:40.940Z,76.63
2022-10-23T10:00:49.254Z,76.13
2022-10-23T10:06:01.452Z,75.30
2022-10-23T10:11:37.633Z,75.10
2022-10-23T10:17:04.653Z,74.55
2022-10-23T10:22:34.359Z,74.93
2022-10-23T10:27:46.898Z,74.82
2022-10-23T10:33:02.751Z,74.58
2022-10-23T10:38:41.491Z,74.27
2022-10-23T10:43:53.351Z,73.76
2022-10-23T10:49:20.968Z,73.74
2022-10-23T10:54:46.539Z,73.66
2022-10-23T10:59:53.487Z,73.36
2022-10-23T11:05:20.726Z,73.06
2022-10-23T11:10:23.866Z,72.81
2022-10-23T11:15:41.180Z,72.33
2022-10-23T11:21:14.716Z,72.11
2022-10-23T11:27:02.132Z,71.77
2022-10-23T11:32:43.701Z,71.65
2022-10-23T11:37:58.381Z,71.68
2022-10-23T11:43:01.357Z,71.34
2022-10-23T11:48:23.798Z,71.30
2022-10-23T11:53:46.965Z,71.09
2022-10-23T11:58:56.556Z,71.27
2022-10-23T12:04:38.607Z,71.14
2022-10-23T12:09:46.466Z,70.79
2022-10-23T12:14:51.407Z,71.05
2022-10-23T12:20:19.830Z,71.37
2022-10-23T12:25:53.436Z,71.02
2022-10-23T12:31:17.806Z,70.81
2022-10-23T12:36:39.413Z,70.69
2022-10-23T12:41:42.964Z,71.06
2022-10-23T12:46:51.523Z,71.00
2022-10-23T12:52:18.433Z,70.98
2022-10-23T12:57:30.380Z,70.62
2022-10-23T13:02:34.378Z,70.57
2022-10-23T13:07:44.695Z,70.35
2022-10-23T13:13:00.764Z,70.55
2022-10-23T13:18:07.095Z,70.40
2022-10-23T13:23:36.136Z,70.17
2022-10-23T13:28:44.531Z,69.89
2022-10-23T13:34:05.401Z,69.84
2022-10-23T13:39:11.568Z,69.76
2022-10-23T13:44:18.131Z,69.67
2022-10-23T13:49:21.139Z,69.68
2022-10-23T13:59:35.860Z,70.00
2022-10-23T14:04:38.604Z,70.27
2022-10-23T14:09:41.620Z,70.18
2022-10-23T14:14:44.528Z,70.12
2022-10-23T14:19:47.609Z,70.03
2022-10-23T14:24:50.764Z,70.15
2022-10-23T14:29:53.667Z,69.96
2022-10-23T14:34:56.539Z,70.00
2022-10-23T14:39:59.840Z,70.08
2022-10-23T14:45:03.317Z,70.17
2022-10-23T14:50:07.258Z,70.13
2022-10-23T14:55:10.165Z,70.38
2022-10-23T15:00:13.799Z,70.62
2022-10-23T15:05:17.273Z,70.44
2022-10-23T15:10:20.233Z,70.50
2022-10-23T15:15:23.952Z,70.65
2022-10-23T15:20:27.325Z,70.61
2022-10-23T15:25:30.111Z,70.51
2022-10-23T15:30:33.676Z,70.89
2022-10-23T15:35:36.648Z,71.10
2022-10-23T15:40:39.870Z,71.29
2022-10-23T15:45:43.283Z,71.22
2022-10-23T15:50:46.046Z,71.26
2022-10-23T15:55:48.970Z,71.12
2022-10-23T16:00:51.894Z,71.27
2022-10-23T16:05:54.799Z,71.35
2022-10-23T16:10:59.727Z,70.98
2022-10-23T16:16:06.368Z,71.10
2022-10-23T16:21:37.794Z,71.00
2022-10-23T16:26:41.074Z,70.94
2022-10-23T16:31:43.991Z,70.99
2022-10-23T16:36:47.512Z,71.16
2022-10-23T16:41:50.460Z,71.28
2022-10-23T16:46:56.597Z,71.35
2022-10-23T16:51:59.506Z,71.38
2022-10-23T16:57:02.387Z,71.27
2022-10-23T17:02:05.492Z,71.58
2022-10-23T17:07:08.573Z,71.47
2022-10-23T17:12:11.542Z,71.68
2022-10-23T17:17:14.499Z,71.83
2022-10-23T17:22:17.468Z,71.91
2022-10-23T17:27:20.451Z,72.12
2022-10-23T17:32:23.365Z,72.23
2022-10-23T17:37:26.342Z,72.40
2022-10-23T17:42:29.695Z,72.65
2022-10-23T17:47:32.598Z,72.90
2022-10-23T17:52:36.536Z,72.87
2022-10-23T17:57:39.935Z,73.24
2022-10-23T18:02:42.687Z,73.52
2022-10-23T18:07:45.984Z,73.93
2022-10-23T18:12:49.121Z,74.14
2022-10-23T18:17:52.048Z,73.72
2022-10-23T18:22:55.055Z,73.22
2022-10-23T18:28:01.751Z,72.98
2022-10-23T18:33:05.516Z,72.98
2022-10-23T18:38:09.881Z,72.70
2022-10-23T18:43:15.170Z,72.64
2022-10-23T18:48:23.129Z,72.64
2022-10-23T18:53:26.153Z,72.17
2022-10-23T18:58:29.080Z,71.94
2022-10-23T19:03:33.517Z,71.99
2022-10-23T19:08:39.093Z,71.74
2022-10-23T19:13:43.025Z,71.78
2022-10-23T19:18:51.308Z,72.04
2022-10-23T19:23:54.243Z,71.90
2022-10-23T19:28:58.202Z,71.47
2022-10-23T19:34:01.445Z,71.63
2022-10-23T19:39:04.493Z,71.46
2022-10-23T19:44:07.636Z,71.41
2022-10-23T19:49:11.093Z,70.76
2022-10-23T19:54:14.099Z,71.31
2022-10-23T19:59:18.535Z,71.64
2022-10-23T20:04:21.416Z,71.13
2022-10-23T20:09:24.363Z,71.43
2022-10-23T20:14:27.579Z,71.85
2022-10-23T20:19:30.574Z,72.13
2022-10-23T20:24:33.667Z,72.33
2022-10-23T20:29:36.949Z,72.40
2022-10-23T20:34:40.059Z,72.38
2022-10-23T20:39:43.668Z,72.16
2022-10-23T20:44:46.587Z,71.99
2022-10-23T20:49:49.503Z,71.81
2022-10-23T20:54:52.416Z,71.14
2022-10-23T20:59:58.297Z,70.93
2022-10-23T21:05:01.178Z,71.33
2022-10-23T21:10:05.502Z,71.03
2022-10-23T21:15:09.622Z,70.79
2022-10-23T21:20:12.537Z,70.90
2022-10-23T21:25:15.559Z,70.96
2022-10-23T21:30:18.606Z,70.99
2022-10-23T21:35:22.142Z,70.96
2022-10-23T21:40:26.439Z,71.09
2022-10-23T21:45:29.647Z,70.79
2022-10-23T21:50:32.590Z,70.50
2022-10-23T21:55:35.501Z,70.41
2022-10-23T22:00:38.422Z,70.48
2022-10-23T22:05:41.325Z,70.72
2022-10-23T22:10:44.252Z,71.09
2022-10-23T22:15:47.184Z,71.30
2022-10-23T22:20:50.126Z,71.06
2022-10-23T22:25:53.162Z,71.21
2022-10-23T22:30:56.062Z,70.76
2022-10-23T22:36:03.596Z,70.94
2022-10-23T22:41:07.487Z,70.82
2022-10-23T22:46:14.001Z,70.93
2022-10-23T22:51:19.909Z,71.09
2022-10-23T22:56:27.150Z,71.34
2022-10-23T23:01:39.466Z,71.38
2022-10-23T23:06:42.499Z,71.29
2022-10-23T23:11:52.052Z,71.05
2022-10-23T23:16:55.359Z,70.95
2022-10-23T23:21:59.356Z,71.05
2022-10-23T23:27:02.366Z,70.95
2022-10-23T23:32:06.322Z,70.76
2022-10-23T23:37:09.238Z,71.01
2022-10-23T23:42:12.129Z,71.13
2022-10-23T23:47:15.068Z,71.38
2022-10-23T23:52:18.052Z,71.73
2022-10-23T23:57:20.980Z,72.14
